Summit, Wisconsin
Current Conditions -  °F | °C
As of 2:35 AM on Sunday 23 Nov 2014 (Local Time) from KRRL Reporting Station
Light Rain Light Rain  
Wind Chill: 38°   Ceiling: 100
Heat Index: 38°   Visibility: 0.25mi
Dew Point: 38°   Wind: 3mph
Humidity: 100%   Direction: 160°SSE
Pressure: 29.59"   Gusts: NA
Location:  45.3595°N, 89.45°W
Report Text: KRRL 230835Z AUTO 16003KT 1/4SM -RA OVC001 04/04 A2959 RMK AO2 T00360036
Loading
Personal Weather Stations






























Interactive Weather Map New forecast layout! Learn more

10-Day Weather Forecast

Advertisements
Track Severe Weather on mobile